sensor_id;sensor_type;location;lat;lon;timestamp;temperature;humidity
33067;DHT22;19428;49.024;8.366;2023-02-21T00:01:34;7.80;99.90
33067;DHT22;19428;49.024;8.366;2023-02-21T00:04:19;7.90;99.90
33067;DHT22;19428;49.024;8.366;2023-02-21T00:07:03;7.90;99.90
33067;DHT22;19428;49.024;8.366;2023-02-21T00:09:48;7.80;99.90
33067;DHT22;19428;49.024;8.366;2023-02-21T00:12:32;7.80;99.90
33067;DHT22;19428;49.024;8.366;2023-02-21T00:15:16;7.90;99.90
33067;DHT22;19428;49.024;8.366;2023-02-21T00:18:00;7.90;99.90
33067;DHT22;19428;49.024;8.366;2023-02-21T00:20:44;7.80;99.90
33067;DHT22;19428;49.024;8.366;2023-02-21T00:23:33;7.80;99.90
33067;DHT22;19428;49.024;8.366;2023-02-21T00:26:19;7.80;99.90
33067;DHT22;19428;49.024;8.366;2023-02-21T00:29:04;7.80;99.90
33067;DHT22;19428;49.024;8.366;2023-02-21T00:31:48;8.00;99.90
33067;DHT22;19428;49.024;8.366;2023-02-21T00:34:32;8.00;99.90
33067;DHT22;19428;49.024;8.366;2023-02-21T00:37:17;7.90;99.90
33067;DHT22;19428;49.024;8.366;2023-02-21T00:40:01;7.80;99.90
33067;DHT22;19428;49.024;8.366;2023-02-21T00:42:45;7.80;99.90
33067;DHT22;19428;49.024;8.366;2023-02-21T00:45:29;7.80;99.90
33067;DHT22;19428;49.024;8.366;2023-02-21T00:48:21;7.70;99.90
33067;DHT22;19428;49.024;8.366;2023-02-21T00:51:06;7.60;99.90
33067;DHT22;19428;49.024;8.366;2023-02-21T00:53:51;7.50;99.90
33067;DHT22;19428;49.024;8.366;2023-02-21T00:56:34;7.50;99.90
33067;DHT22;19428;49.024;8.366;2023-02-21T00:59:19;7.40;99.90
33067;DHT22;19428;49.024;8.366;2023-02-21T01:02:04;7.40;99.90
33067;DHT22;19428;49.024;8.366;2023-02-21T01:04:48;7.50;99.90
33067;DHT22;19428;49.024;8.366;2023-02-21T01:07:32;7.50;99.90
33067;DHT22;19428;49.024;8.366;2023-02-21T01:10:16;7.50;99.90
33067;DHT22;19428;49.024;8.366;2023-02-21T01:13:02;7.50;99.90
33067;DHT22;19428;49.024;8.366;2023-02-21T01:15:47;7.40;99.90
33067;DHT22;19428;49.024;8.366;2023-02-21T01:18:31;7.30;99.90
33067;DHT22;19428;49.024;8.366;2023-02-21T01:21:16;7.40;99.90
33067;DHT22;19428;49.024;8.366;2023-02-21T01:24:01;7.40;99.90
33067;DHT22;19428;49.024;8.366;2023-02-21T01:26:46;7.40;99.90
33067;DHT22;19428;49.024;8.366;2023-02-21T01:29:31;7.40;99.90
33067;DHT22;19428;49.024;8.366;2023-02-21T01:32:15;7.40;99.90
33067;DHT22;19428;49.024;8.366;2023-02-21T01:35:00;7.20;99.90
33067;DHT22;19428;49.024;8.366;2023-02-21T01:37:44;7.30;99.90
33067;DHT22;19428;49.024;8.366;2023-02-21T01:40:28;7.10;99.90
33067;DHT22;19428;49.024;8.366;2023-02-21T01:43:22;7.10;99.90
33067;DHT22;19428;49.024;8.366;2023-02-21T01:46:19;7.00;99.90
33067;DHT22;19428;49.024;8.366;2023-02-21T01:49:16;7.00;99.90
33067;DHT22;19428;49.024;8.366;2023-02-21T01:52:02;7.00;99.90
33067;DHT22;19428;49.024;8.366;2023-02-21T01:54:52;6.90;99.90
33067;DHT22;19428;49.024;8.366;2023-02-21T01:57:38;6.90;99.90
33067;DHT22;19428;49.024;8.366;2023-02-21T02:00:23;6.90;99.90
33067;DHT22;19428;49.024;8.366;2023-02-21T02:03:10;6.90;99.90
33067;DHT22;19428;49.024;8.366;2023-02-21T02:06:00;6.90;99.90
33067;DHT22;19428;49.024;8.366;2023-02-21T02:08:45;6.90;99.90
33067;DHT22;19428;49.024;8.366;2023-02-21T02:11:49;6.80;99.90
33067;DHT22;19428;49.024;8.366;2023-02-21T02:20:49;6.70;99.90
33067;DHT22;19428;49.024;8.366;2023-02-21T02:31:57;6.60;99.90
33067;DHT22;19428;49.024;8.366;2023-02-21T02:34:52;6.60;99.90
33067;DHT22;19428;49.024;8.366;2023-02-21T02:40:12;6.60;99.90
33067;DHT22;19428;49.024;8.366;2023-02-21T02:47:54;6.50;99.90
33067;DHT22;19428;49.024;8.366;2023-02-21T02:50:22;6.50;99.90
33067;DHT22;19428;49.024;8.366;2023-02-21T02:52:50;6.50;99.90
33067;DHT22;19428;49.024;8.366;2023-02-21T02:57:55;6.40;99.90
33067;DHT22;19428;49.024;8.366;2023-02-21T03:00:21;6.40;99.90
33067;DHT22;19428;49.024;8.366;2023-02-21T03:05:56;6.30;99.90
33067;DHT22;19428;49.024;8.366;2023-02-21T03:11:23;6.30;99.90
33067;DHT22;19428;49.024;8.366;2023-02-21T03:13:54;6.20;99.90
33067;DHT22;19428;49.024;8.366;2023-02-21T03:16:41;6.20;99.90
33067;DHT22;19428;49.024;8.366;2023-02-21T03:19:12;6.20;99.90
33067;DHT22;19428;49.024;8.366;2023-02-21T03:21:45;6.20;99.90
33067;DHT22;19428;49.024;8.366;2023-02-21T03:24:14;6.10;99.90
33067;DHT22;19428;49.024;8.366;2023-02-21T03:26:41;6.10;99.90
33067;DHT22;19428;49.024;8.366;2023-02-21T03:29:09;6.10;99.90
33067;DHT22;19428;49.024;8.366;2023-02-21T03:31:46;6.10;99.90
33067;DHT22;19428;49.024;8.366;2023-02-21T03:34:13;6.10;99.90
33067;DHT22;19428;49.024;8.366;2023-02-21T03:36:39;6.00;99.90
33067;DHT22;19428;49.024;8.366;2023-02-21T03:39:07;6.10;99.90
33067;DHT22;19428;49.024;8.366;2023-02-21T03:41:32;6.10;99.90
33067;DHT22;19428;49.024;8.366;2023-02-21T03:43:58;6.10;99.90
33067;DHT22;19428;49.024;8.366;2023-02-21T03:46:23;6.10;99.90
33067;DHT22;19428;49.024;8.366;2023-02-21T03:48:49;6.10;99.90
33067;DHT22;19428;49.024;8.366;2023-02-21T03:51:15;6.10;99.90
33067;DHT22;19428;49.024;8.366;2023-02-21T03:53:40;6.10;99.90
33067;DHT22;19428;49.024;8.366;2023-02-21T03:56:06;6.00;99.90
33067;DHT22;19428;49.024;8.366;2023-02-21T03:58:32;6.10;99.90
33067;DHT22;19428;49.024;8.366;2023-02-21T04:00:58;6.00;99.90
33067;DHT22;19428;49.024;8.366;2023-02-21T04:03:23;6.00;99.90
33067;DHT22;19428;49.024;8.366;2023-02-21T04:05:49;5.90;99.90
33067;DHT22;19428;49.024;8.366;2023-02-21T04:08:15;5.90;99.90
33067;DHT22;19428;49.024;8.366;2023-02-21T04:10:41;5.90;99.90
33067;DHT22;19428;49.024;8.366;2023-02-21T04:13:06;5.90;99.90
33067;DHT22;19428;49.024;8.366;2023-02-21T04:15:33;5.90;99.90
33067;DHT22;19428;49.024;8.366;2023-02-21T04:17:59;6.00;99.90
33067;DHT22;19428;49.024;8.366;2023-02-21T04:20:24;6.00;99.90
33067;DHT22;19428;49.024;8.366;2023-02-21T04:22:50;6.10;99.90
33067;DHT22;19428;49.024;8.366;2023-02-21T04:25:15;6.10;99.90
33067;DHT22;19428;49.024;8.366;2023-02-21T04:27:41;6.10;99.90
33067;DHT22;19428;49.024;8.366;2023-02-21T04:30:07;6.10;99.90
33067;DHT22;19428;49.024;8.366;2023-02-21T04:32:33;6.10;99.90
33067;DHT22;19428;49.024;8.366;2023-02-21T04:34:58;6.10;99.90
33067;DHT22;19428;49.024;8.366;2023-02-21T04:37:24;6.00;99.90
33067;DHT22;19428;49.024;8.366;2023-02-21T04:39:49;5.90;99.90
33067;DHT22;19428;49.024;8.366;2023-02-21T04:42:15;5.90;99.90
33067;DHT22;19428;49.024;8.366;2023-02-21T04:44:41;5.90;99.90
33067;DHT22;19428;49.024;8.366;2023-02-21T04:47:06;6.00;99.90
33067;DHT22;19428;49.024;8.366;2023-02-21T04:49:32;5.90;99.90
33067;DHT22;19428;49.024;8.366;2023-02-21T04:51:57;5.90;99.90
33067;DHT22;19428;49.024;8.366;2023-02-21T04:54:23;5.90;99.90
33067;DHT22;19428;49.024;8.366;2023-02-21T04:56:48;5.80;99.90
33067;DHT22;19428;49.024;8.366;2023-02-21T04:59:14;5.80;99.90
33067;DHT22;19428;49.024;8.366;2023-02-21T05:01:40;5.80;99.90
33067;DHT22;19428;49.024;8.366;2023-02-21T05:04:05;5.70;99.90
33067;DHT22;19428;49.024;8.366;2023-02-21T05:06:31;5.60;99.90
33067;DHT22;19428;49.024;8.366;2023-02-21T05:08:57;5.60;99.90
33067;DHT22;19428;49.024;8.366;2023-02-21T05:11:23;5.60;99.90
33067;DHT22;19428;49.024;8.366;2023-02-21T05:13:49;5.60;99.90
33067;DHT22;19428;49.024;8.366;2023-02-21T05:16:16;5.60;99.90
33067;DHT22;19428;49.024;8.366;2023-02-21T05:18:42;5.60;99.90
33067;DHT22;19428;49.024;8.366;2023-02-21T05:21:08;5.60;99.90
33067;DHT22;19428;49.024;8.366;2023-02-21T05:23:34;5.60;99.90
33067;DHT22;19428;49.024;8.366;2023-02-21T05:26:07;5.60;99.90
33067;DHT22;19428;49.024;8.366;2023-02-21T05:28:33;5.50;99.90
33067;DHT22;19428;49.024;8.366;2023-02-21T05:30:58;5.50;99.90
33067;DHT22;19428;49.024;8.366;2023-02-21T05:33:24;5.50;99.90
33067;DHT22;19428;49.024;8.366;2023-02-21T05:35:51;5.40;99.90
33067;DHT22;19428;49.024;8.366;2023-02-21T05:38:19;5.40;99.90
33067;DHT22;19428;49.024;8.366;2023-02-21T05:40:45;5.30;99.90
33067;DHT22;19428;49.024;8.366;2023-02-21T05:43:11;5.30;99.90
33067;DHT22;19428;49.024;8.366;2023-02-21T05:45:37;5.20;99.90
33067;DHT22;19428;49.024;8.366;2023-02-21T05:48:02;5.20;99.90
33067;DHT22;19428;49.024;8.366;2023-02-21T05:50:28;5.20;99.90
33067;DHT22;19428;49.024;8.366;2023-02-21T05:52:55;5.20;99.90
33067;DHT22;19428;49.024;8.366;2023-02-21T05:55:21;5.20;99.90
33067;DHT22;19428;49.024;8.366;2023-02-21T05:57:46;5.10;99.90
33067;DHT22;19428;49.024;8.366;2023-02-21T06:00:18;5.20;99.90
33067;DHT22;19428;49.024;8.366;2023-02-21T06:02:44;5.20;99.90
33067;DHT22;19428;49.024;8.366;2023-02-21T06:05:10;5.20;99.90
33067;DHT22;19428;49.024;8.366;2023-02-21T06:07:36;5.20;99.90
33067;DHT22;19428;49.024;8.366;2023-02-21T06:10:02;5.20;99.90
33067;DHT22;19428;49.024;8.366;2023-02-21T06:12:28;5.30;99.90
33067;DHT22;19428;49.024;8.366;2023-02-21T06:14:54;5.20;99.90
33067;DHT22;19428;49.024;8.366;2023-02-21T06:17:19;5.20;99.90
33067;DHT22;19428;49.024;8.366;2023-02-21T06:19:45;5.30;99.90
33067;DHT22;19428;49.024;8.366;2023-02-21T06:22:11;5.30;99.90
33067;DHT22;19428;49.024;8.366;2023-02-21T06:24:36;5.30;99.90
33067;DHT22;19428;49.024;8.366;2023-02-21T06:27:02;5.30;99.90
33067;DHT22;19428;49.024;8.366;2023-02-21T06:29:27;5.30;99.90
33067;DHT22;19428;49.024;8.366;2023-02-21T06:31:57;5.20;99.90
33067;DHT22;19428;49.024;8.366;2023-02-21T06:34:23;5.30;99.90
33067;DHT22;19428;49.024;8.366;2023-02-21T06:36:53;5.30;99.90
33067;DHT22;19428;49.024;8.366;2023-02-21T06:39:21;5.30;99.90
33067;DHT22;19428;49.024;8.366;2023-02-21T06:41:48;5.30;99.90
33067;DHT22;19428;49.024;8.366;2023-02-21T06:44:14;5.30;99.90
33067;DHT22;19428;49.024;8.366;2023-02-21T06:46:40;5.20;99.90
33067;DHT22;19428;49.024;8.366;2023-02-21T06:49:06;5.20;99.90
33067;DHT22;19428;49.024;8.366;2023-02-21T06:51:37;5.20;99.90
33067;DHT22;19428;49.024;8.366;2023-02-21T06:54:03;5.10;99.90
33067;DHT22;19428;49.024;8.366;2023-02-21T06:56:29;5.10;99.90
33067;DHT22;19428;49.024;8.366;2023-02-21T06:58:55;5.10;99.90
33067;DHT22;19428;49.024;8.366;2023-02-21T07:01:23;5.20;99.90
33067;DHT22;19428;49.024;8.366;2023-02-21T07:03:49;5.30;99.90
33067;DHT22;19428;49.024;8.366;2023-02-21T07:06:14;5.30;99.90
33067;DHT22;19428;49.024;8.366;2023-02-21T07:08:40;5.30;99.90
33067;DHT22;19428;49.024;8.366;2023-02-21T07:11:06;5.30;99.90
33067;DHT22;19428;49.024;8.366;2023-02-21T07:13:33;5.40;99.90
33067;DHT22;19428;49.024;8.366;2023-02-21T07:16:00;5.40;99.90
33067;DHT22;19428;49.024;8.366;2023-02-21T07:18:25;5.50;99.90
33067;DHT22;19428;49.024;8.366;2023-02-21T07:20:51;5.50;99.90
33067;DHT22;19428;49.024;8.366;2023-02-21T07:23:17;5.40;99.90
33067;DHT22;19428;49.024;8.366;2023-02-21T07:25:42;5.50;99.90
33067;DHT22;19428;49.024;8.366;2023-02-21T07:28:08;5.50;99.90
33067;DHT22;19428;49.024;8.366;2023-02-21T07:30:33;5.50;99.90
33067;DHT22;19428;49.024;8.366;2023-02-21T07:32:59;5.50;99.90
33067;DHT22;19428;49.024;8.366;2023-02-21T07:35:25;5.50;99.90
33067;DHT22;19428;49.024;8.366;2023-02-21T07:37:51;5.60;99.90
33067;DHT22;19428;49.024;8.366;2023-02-21T07:40:16;5.60;99.90
33067;DHT22;19428;49.024;8.366;2023-02-21T07:42:42;5.70;99.90
33067;DHT22;19428;49.024;8.366;2023-02-21T07:45:11;5.70;99.90
33067;DHT22;19428;49.024;8.366;2023-02-21T07:47:37;5.80;99.90
33067;DHT22;19428;49.024;8.366;2023-02-21T07:50:03;5.90;99.90
33067;DHT22;19428;49.024;8.366;2023-02-21T07:52:29;5.90;99.90
33067;DHT22;19428;49.024;8.366;2023-02-21T07:54:55;6.00;99.90
33067;DHT22;19428;49.024;8.366;2023-02-21T07:57:20;5.90;99.90
33067;DHT22;19428;49.024;8.366;2023-02-21T07:59:47;6.00;99.90
33067;DHT22;19428;49.024;8.366;2023-02-21T08:02:13;6.10;99.90
33067;DHT22;19428;49.024;8.366;2023-02-21T08:04:41;6.20;99.90
33067;DHT22;19428;49.024;8.366;2023-02-21T08:07:08;6.20;99.90
33067;DHT22;19428;49.024;8.366;2023-02-21T08:09:34;6.30;99.90
33067;DHT22;19428;49.024;8.366;2023-02-21T08:12:00;6.30;99.90
33067;DHT22;19428;49.024;8.366;2023-02-21T08:14:26;6.50;99.90
33067;DHT22;19428;49.024;8.366;2023-02-21T08:16:51;6.60;99.90
33067;DHT22;19428;49.024;8.366;2023-02-21T08:19:18;6.70;99.90
33067;DHT22;19428;49.024;8.366;2023-02-21T08:21:45;6.90;99.90
33067;DHT22;19428;49.024;8.366;2023-02-21T08:24:12;7.00;99.90
33067;DHT22;19428;49.024;8.366;2023-02-21T08:26:38;7.00;99.90
33067;DHT22;19428;49.024;8.366;2023-02-21T08:29:05;7.10;99.90
33067;DHT22;19428;49.024;8.366;2023-02-21T08:31:37;7.10;99.90
33067;DHT22;19428;49.024;8.366;2023-02-21T08:34:03;7.20;99.90
33067;DHT22;19428;49.024;8.366;2023-02-21T08:36:31;7.30;99.90
33067;DHT22;19428;49.024;8.366;2023-02-21T08:38:57;7.40;99.90
33067;DHT22;19428;49.024;8.366;2023-02-21T08:41:22;7.50;99.90
33067;DHT22;19428;49.024;8.366;2023-02-21T08:43:48;7.60;99.90
33067;DHT22;19428;49.024;8.366;2023-02-21T08:46:14;7.60;99.90
33067;DHT22;19428;49.024;8.366;2023-02-21T08:48:39;7.70;99.90
33067;DHT22;19428;49.024;8.366;2023-02-21T08:51:05;7.80;99.90
33067;DHT22;19428;49.024;8.366;2023-02-21T08:53:31;7.80;99.90
33067;DHT22;19428;49.024;8.366;2023-02-21T08:55:56;7.90;99.90
33067;DHT22;19428;49.024;8.366;2023-02-21T08:58:22;7.90;99.90
33067;DHT22;19428;49.024;8.366;2023-02-21T09:00:48;8.10;99.90
33067;DHT22;19428;49.024;8.366;2023-02-21T09:03:17;8.20;99.90
33067;DHT22;19428;49.024;8.366;2023-02-21T09:05:42;8.30;99.90
33067;DHT22;19428;49.024;8.366;2023-02-21T09:08:08;8.40;99.90
33067;DHT22;19428;49.024;8.366;2023-02-21T09:10:35;8.60;99.90
33067;DHT22;19428;49.024;8.366;2023-02-21T09:13:02;8.80;99.90
33067;DHT22;19428;49.024;8.366;2023-02-21T09:15:27;8.80;99.90
33067;DHT22;19428;49.024;8.366;2023-02-21T09:17:54;8.60;99.90
33067;DHT22;19428;49.024;8.366;2023-02-21T09:20:23;8.70;99.90
33067;DHT22;19428;49.024;8.366;2023-02-21T09:22:49;8.80;99.90
33067;DHT22;19428;49.024;8.366;2023-02-21T09:25:18;9.00;99.90
33067;DHT22;19428;49.024;8.366;2023-02-21T09:27:43;9.00;99.90
33067;DHT22;19428;49.024;8.366;2023-02-21T09:30:12;9.10;99.90
33067;DHT22;19428;49.024;8.366;2023-02-21T09:32:39;9.30;99.90
33067;DHT22;19428;49.024;8.366;2023-02-21T09:35:05;9.40;99.90
33067;DHT22;19428;49.024;8.366;2023-02-21T09:37:31;9.60;99.90
33067;DHT22;19428;49.024;8.366;2023-02-21T09:39:57;9.60;99.90
33067;DHT22;19428;49.024;8.366;2023-02-21T09:42:29;9.60;99.90
33067;DHT22;19428;49.024;8.366;2023-02-21T09:44:55;9.70;99.90
33067;DHT22;19428;49.024;8.366;2023-02-21T09:47:30;9.90;99.90
33067;DHT22;19428;49.024;8.366;2023-02-21T09:50:00;10.00;99.90
33067;DHT22;19428;49.024;8.366;2023-02-21T09:52:36;10.10;99.90
33067;DHT22;19428;49.024;8.366;2023-02-21T09:55:19;10.30;99.90
33067;DHT22;19428;49.024;8.366;2023-02-21T09:57:47;10.30;99.90
33067;DHT22;19428;49.024;8.366;2023-02-21T10:00:22;10.20;99.90
33067;DHT22;19428;49.024;8.366;2023-02-21T10:03:01;10.30;99.90
33067;DHT22;19428;49.024;8.366;2023-02-21T10:08:08;10.60;99.90
33067;DHT22;19428;49.024;8.366;2023-02-21T10:10:43;10.80;99.90
33067;DHT22;19428;49.024;8.366;2023-02-21T10:13:33;10.80;99.90
33067;DHT22;19428;49.024;8.366;2023-02-21T10:16:20;10.80;99.90
33067;DHT22;19428;49.024;8.366;2023-02-21T10:19:09;11.00;99.90
33067;DHT22;19428;49.024;8.366;2023-02-21T10:21:40;11.10;99.90
33067;DHT22;19428;49.024;8.366;2023-02-21T10:24:27;11.20;99.90
33067;DHT22;19428;49.024;8.366;2023-02-21T10:27:00;11.30;99.10
33067;DHT22;19428;49.024;8.366;2023-02-21T10:29:51;11.40;98.70
33067;DHT22;19428;49.024;8.366;2023-02-21T10:32:21;11.40;99.00
33067;DHT22;19428;49.024;8.366;2023-02-21T10:34:47;11.70;98.20
33067;DHT22;19428;49.024;8.366;2023-02-21T10:39:54;11.80;96.90
33067;DHT22;19428;49.024;8.366;2023-02-21T10:42:48;11.80;96.80
33067;DHT22;19428;49.024;8.366;2023-02-21T10:45:17;11.80;97.40
33067;DHT22;19428;49.024;8.366;2023-02-21T10:47:59;12.00;95.90
33067;DHT22;19428;49.024;8.366;2023-02-21T10:53:24;12.30;95.10
33067;DHT22;19428;49.024;8.366;2023-02-21T10:58:59;12.40;95.10
33067;DHT22;19428;49.024;8.366;2023-02-21T11:12:00;12.80;93.10
33067;DHT22;19428;49.024;8.366;2023-02-21T11:14:28;13.00;93.00
33067;DHT22;19428;49.024;8.366;2023-02-21T11:17:05;13.00;93.50
33067;DHT22;19428;49.024;8.366;2023-02-21T11:19:53;13.00;92.00
33067;DHT22;19428;49.024;8.366;2023-02-21T11:27:26;13.40;90.70
33067;DHT22;19428;49.024;8.366;2023-02-21T11:29:53;13.60;86.40
33067;DHT22;19428;49.024;8.366;2023-02-21T11:32:24;13.40;87.60
33067;DHT22;19428;49.024;8.366;2023-02-21T11:34:50;13.50;85.50
33067;DHT22;19428;49.024;8.366;2023-02-21T11:37:16;13.60;86.30
33067;DHT22;19428;49.024;8.366;2023-02-21T11:39:49;13.60;82.80
33067;DHT22;19428;49.024;8.366;2023-02-21T11:42:27;13.60;84.40
33067;DHT22;19428;49.024;8.366;2023-02-21T11:47:56;13.90;79.90
33067;DHT22;19428;49.024;8.366;2023-02-21T11:50:32;14.00;80.50
33067;DHT22;19428;49.024;8.366;2023-02-21T11:53:21;14.10;78.30
33067;DHT22;19428;49.024;8.366;2023-02-21T11:59:06;14.50;74.70
33067;DHT22;19428;49.024;8.366;2023-02-21T12:01:46;14.50;72.90
33067;DHT22;19428;49.024;8.366;2023-02-21T12:07:25;14.50;73.00
33067;DHT22;19428;49.024;8.366;2023-02-21T12:10:23;14.50;70.20
33067;DHT22;19428;49.024;8.366;2023-02-21T12:13:30;14.50;70.60
33067;DHT22;19428;49.024;8.366;2023-02-21T12:16:12;14.20;69.70
33067;DHT22;19428;49.024;8.366;2023-02-21T12:22:01;14.00;71.80
33067;DHT22;19428;49.024;8.366;2023-02-21T12:27:19;14.30;72.30
33067;DHT22;19428;49.024;8.366;2023-02-21T12:30:16;14.40;69.90
33067;DHT22;19428;49.024;8.366;2023-02-21T12:32:49;14.40;68.50
33067;DHT22;19428;49.024;8.366;2023-02-21T12:40:40;14.60;62.60
33067;DHT22;19428;49.024;8.366;2023-02-21T12:46:18;14.60;63.60
33067;DHT22;19428;49.024;8.366;2023-02-21T12:49:02;14.70;61.30
33067;DHT22;19428;49.024;8.366;2023-02-21T12:51:36;15.10;61.20
33067;DHT22;19428;49.024;8.366;2023-02-21T12:54:12;15.50;60.70
33067;DHT22;19428;49.024;8.366;2023-02-21T12:56:49;15.60;54.90
33067;DHT22;19428;49.024;8.366;2023-02-21T12:59:21;15.80;54.60
33067;DHT22;19428;49.024;8.366;2023-02-21T13:01:54;15.90;55.00
33067;DHT22;19428;49.024;8.366;2023-02-21T13:04:37;16.10;54.60
33067;DHT22;19428;49.024;8.366;2023-02-21T13:07:32;16.10;55.20
33067;DHT22;19428;49.024;8.366;2023-02-21T13:13:08;16.30;52.60
33067;DHT22;19428;49.024;8.366;2023-02-21T13:15:36;16.50;50.20
33067;DHT22;19428;49.024;8.366;2023-02-21T13:18:08;16.80;48.80
33067;DHT22;19428;49.024;8.366;2023-02-21T13:20:56;16.60;47.60
33067;DHT22;19428;49.024;8.366;2023-02-21T13:29:34;17.20;43.50
33067;DHT22;19428;49.024;8.366;2023-02-21T13:32:14;16.80;41.30
33067;DHT22;19428;49.024;8.366;2023-02-21T13:35:00;16.90;41.60
33067;DHT22;19428;49.024;8.366;2023-02-21T13:37:29;17.10;40.10
33067;DHT22;19428;49.024;8.366;2023-02-21T13:39:58;17.20;41.10
33067;DHT22;19428;49.024;8.366;2023-02-21T13:42:33;17.50;38.50
33067;DHT22;19428;49.024;8.366;2023-02-21T13:45:21;17.50;38.00
33067;DHT22;19428;49.024;8.366;2023-02-21T13:55:38;17.70;37.30
33067;DHT22;19428;49.024;8.366;2023-02-21T14:08:28;17.20;36.10
33067;DHT22;19428;49.024;8.366;2023-02-21T14:13:44;18.00;36.20
33067;DHT22;19428;49.024;8.366;2023-02-21T14:16:18;17.40;34.70
33067;DHT22;19428;49.024;8.366;2023-02-21T14:18:59;17.60;34.10
33067;DHT22;19428;49.024;8.366;2023-02-21T14:21:46;17.90;34.60
33067;DHT22;19428;49.024;8.366;2023-02-21T14:26:53;17.60;32.80
33067;DHT22;19428;49.024;8.366;2023-02-21T14:37:05;17.60;33.50
33067;DHT22;19428;49.024;8.366;2023-02-21T14:39:41;17.30;34.00
33067;DHT22;19428;49.024;8.366;2023-02-21T14:42:16;17.20;34.80
33067;DHT22;19428;49.024;8.366;2023-02-21T14:58:18;17.70;31.50
33067;DHT22;19428;49.024;8.366;2023-02-21T15:06:23;17.80;31.20
33067;DHT22;19428;49.024;8.366;2023-02-21T15:08:51;17.90;30.60
33067;DHT22;19428;49.024;8.366;2023-02-21T15:11:30;18.10;28.70
33067;DHT22;19428;49.024;8.366;2023-02-21T15:16:47;17.20;29.10
33067;DHT22;19428;49.024;8.366;2023-02-21T15:19:40;17.00;30.10
33067;DHT22;19428;49.024;8.366;2023-02-21T15:22:23;17.00;29.00
33067;DHT22;19428;49.024;8.366;2023-02-21T15:25:16;17.10;29.70
33067;DHT22;19428;49.024;8.366;2023-02-21T15:32:57;16.80;29.60
33067;DHT22;19428;49.024;8.366;2023-02-21T15:36:17;16.90;29.20
33067;DHT22;19428;49.024;8.366;2023-02-21T15:38:22;16.50;29.70
33067;DHT22;19428;49.024;8.366;2023-02-21T15:40:53;16.40;28.70
33067;DHT22;19428;49.024;8.366;2023-02-21T15:43:36;16.40;30.60
33067;DHT22;19428;49.024;8.366;2023-02-21T15:46:07;16.50;29.90
33067;DHT22;19428;49.024;8.366;2023-02-21T15:48:34;16.60;29.50
33067;DHT22;19428;49.024;8.366;2023-02-21T15:51:02;16.30;29.40
33067;DHT22;19428;49.024;8.366;2023-02-21T15:53:29;16.20;30.30
33067;DHT22;19428;49.024;8.366;2023-02-21T15:56:15;15.80;31.70
33067;DHT22;19428;49.024;8.366;2023-02-21T15:58:41;15.80;31.00
33067;DHT22;19428;49.024;8.366;2023-02-21T16:01:26;15.70;31.00
33067;DHT22;19428;49.024;8.366;2023-02-21T16:04:12;15.90;30.30
33067;DHT22;19428;49.024;8.366;2023-02-21T16:06:43;15.80;30.60
33067;DHT22;19428;49.024;8.366;2023-02-21T16:09:20;15.70;31.80
33067;DHT22;19428;49.024;8.366;2023-02-21T16:11:55;15.40;31.60
33067;DHT22;19428;49.024;8.366;2023-02-21T16:17:38;15.50;32.40
33067;DHT22;19428;49.024;8.366;2023-02-21T16:22:39;15.40;33.10
33067;DHT22;19428;49.024;8.366;2023-02-21T16:27:37;15.20;33.90
33067;DHT22;19428;49.024;8.366;2023-02-21T16:30:04;14.60;37.80
33067;DHT22;19428;49.024;8.366;2023-02-21T16:32:31;14.00;42.20
33067;DHT22;19428;49.024;8.366;2023-02-21T16:34:57;13.80;43.10
33067;DHT22;19428;49.024;8.366;2023-02-21T16:37:23;13.70;43.90
33067;DHT22;19428;49.024;8.366;2023-02-21T16:39:49;13.50;45.90
33067;DHT22;19428;49.024;8.366;2023-02-21T16:42:16;13.20;47.90
33067;DHT22;19428;49.024;8.366;2023-02-21T16:44:42;13.10;48.80
33067;DHT22;19428;49.024;8.366;2023-02-21T16:47:13;13.10;51.60
33067;DHT22;19428;49.024;8.366;2023-02-21T16:49:39;12.80;52.20
33067;DHT22;19428;49.024;8.366;2023-02-21T16:52:05;12.70;52.50
33067;DHT22;19428;49.024;8.366;2023-02-21T16:54:30;12.80;52.30
33067;DHT22;19428;49.024;8.366;2023-02-21T16:56:56;12.70;53.80
33067;DHT22;19428;49.024;8.366;2023-02-21T16:59:23;12.50;57.50
33067;DHT22;19428;49.024;8.366;2023-02-21T17:01:49;12.30;59.80
33067;DHT22;19428;49.024;8.366;2023-02-21T17:04:20;12.10;59.60
33067;DHT22;19428;49.024;8.366;2023-02-21T17:06:51;11.90;61.70
33067;DHT22;19428;49.024;8.366;2023-02-21T17:09:22;11.90;62.30
33067;DHT22;19428;49.024;8.366;2023-02-21T17:11:48;11.80;64.90
33067;DHT22;19428;49.024;8.366;2023-02-21T17:14:14;11.70;67.50
33067;DHT22;19428;49.024;8.366;2023-02-21T17:16:40;11.70;69.50
33067;DHT22;19428;49.024;8.366;2023-02-21T17:19:13;11.70;71.10
33067;DHT22;19428;49.024;8.366;2023-02-21T17:21:39;11.80;72.00
33067;DHT22;19428;49.024;8.366;2023-02-21T17:24:05;11.70;73.80
33067;DHT22;19428;49.024;8.366;2023-02-21T17:26:31;11.40;71.80
33067;DHT22;19428;49.024;8.366;2023-02-21T17:28:56;11.40;74.40
33067;DHT22;19428;49.024;8.366;2023-02-21T17:31:22;11.40;77.20
33067;DHT22;19428;49.024;8.366;2023-02-21T17:33:48;11.50;75.60
33067;DHT22;19428;49.024;8.366;2023-02-21T17:36:18;11.30;76.80
33067;DHT22;19428;49.024;8.366;2023-02-21T17:38:44;11.20;76.50
33067;DHT22;19428;49.024;8.366;2023-02-21T17:41:11;10.90;78.30
33067;DHT22;19428;49.024;8.366;2023-02-21T17:43:37;10.80;79.40
33067;DHT22;19428;49.024;8.366;2023-02-21T17:46:03;10.70;79.60
33067;DHT22;19428;49.024;8.366;2023-02-21T17:48:29;10.80;80.30
33067;DHT22;19428;49.024;8.366;2023-02-21T17:50:55;10.80;80.90
33067;DHT22;19428;49.024;8.366;2023-02-21T17:53:20;10.80;82.50
33067;DHT22;19428;49.024;8.366;2023-02-21T17:55:47;10.80;83.40
33067;DHT22;19428;49.024;8.366;2023-02-21T17:58:12;10.50;81.80
33067;DHT22;19428;49.024;8.366;2023-02-21T18:00:38;10.20;82.90
33067;DHT22;19428;49.024;8.366;2023-02-21T18:03:04;10.20;87.40
33067;DHT22;19428;49.024;8.366;2023-02-21T18:05:31;10.20;86.30
33067;DHT22;19428;49.024;8.366;2023-02-21T18:07:57;9.90;87.30
33067;DHT22;19428;49.024;8.366;2023-02-21T18:10:24;9.70;89.90
33067;DHT22;19428;49.024;8.366;2023-02-21T18:12:51;9.60;91.50
33067;DHT22;19428;49.024;8.366;2023-02-21T18:15:19;9.60;92.70
33067;DHT22;19428;49.024;8.366;2023-02-21T18:17:45;9.50;92.70
33067;DHT22;19428;49.024;8.366;2023-02-21T18:20:10;9.40;93.40
33067;DHT22;19428;49.024;8.366;2023-02-21T18:22:38;9.40;93.80
33067;DHT22;19428;49.024;8.366;2023-02-21T18:25:04;9.50;94.30
33067;DHT22;19428;49.024;8.366;2023-02-21T18:27:30;9.60;93.90
33067;DHT22;19428;49.024;8.366;2023-02-21T18:29:56;9.70;94.00
33067;DHT22;19428;49.024;8.366;2023-02-21T18:32:22;9.70;94.00
33067;DHT22;19428;49.024;8.366;2023-02-21T18:34:48;9.70;94.20
33067;DHT22;19428;49.024;8.366;2023-02-21T18:37:14;9.60;93.60
33067;DHT22;19428;49.024;8.366;2023-02-21T18:39:39;9.30;94.30
33067;DHT22;19428;49.024;8.366;2023-02-21T18:42:05;9.00;94.90
33067;DHT22;19428;49.024;8.366;2023-02-21T18:44:31;8.90;96.20
33067;DHT22;19428;49.024;8.366;2023-02-21T18:46:57;8.60;97.50